Aérodrome :
LOGIN :

S'inscrire | Disclaimer

   EN    FR    IT 

 










Légende :    VFR   VFR Marginal   IFR   IFR Intensif   IFR Très Intensif
Visi : 
Plafond : 
>= 8 km
>= 3000ft
5 à 8 km
1000 à 3000 ft
1500m à 5 km
500 à 1000 ft
800 à 1500m
200 à 500 ft
< 800m
< 200 ft
Symboles :   Orages  Brouillard  Fortes neiges  Fortes précipitations  Vent > 20 kt
SIGMETs :   Divers  Orages  Givrage  Turbulence  Onde Orograph.  Cendres Volcan.







- Altitude de l'aérodrome : 1345 ft
- Code IATA : FRZ


ETHF - Fritzlar

DERNIER METAR :
  • 101620Z 28010KT 9999 FEW028 02/00 Q1018 RESHRA BLU+

METARs EXPIRÉS :
  • 101601Z 31006KT 9999 -SHRA FEW011 BKN030 BKN060 02/01 Q1019 RESHRA BLU FCST CANCEL
  • 101541Z 32015G29KT 5000 SHRA FEW011 BKN025CB 04/M01 Q1019 WHT BLU TEMPO WHT
  • 101520Z 30009KT 9999 VCSH FEW025CB BKN070 05/M01 Q1018 BLU BLU TEMPO WHT
  • 101420Z 29009KT 9999 VCSH FEW025CB SCT030 05/M01 Q1017 BLU+BLU+ TEMPO WHT

TAF COR TAF ETHF
Valide du 10 à 15h jusqu'au 11 à 00h UTC


101538Z 1015/1024 29010KT 9999 NSW SCT025 SCT040
TEMPO 1015/1024 30015G25KT 5000 SHRA FEW015 BKN020CB
Pas de NOTAMs connus pour ce terrain.
1 SIGMET publié pour la FIR Langen (EDGG) :
 
Turbulence forte
EDGG SIGMET 1 VALID 101413/101700 EDZF
EDGG LANGEN FIR SEV TURB OBS SW OF LINE N5025 E00625 - N4830 E00935 FL180/220 STNR NC=



MET'MAP, la Météo Aéronautique d'un coup d'oeil ! - Copyright ORBIFLY Décembre 2007 - Disclaimer

ORBIFLY MET'MAP TEAM :

Programmation & Développement : Alexandra Zaïnal
Conception & Développement : Baudouin d'Aumeries
Co-Programmation & Développement : Marc-Olivier Méhu
Soutien technique & logistique : Manuel Goepfert

Contact : metmap@orbifly.com




SOURCES & CREDITS :

   NOAA